Time;durP1;ratioP1;P1;durP2;ratioP2;P2;SDS_P1;SDS_P2;PMS_P1;PMS_P2;Temp;Humidity;BMP_temperature;BMP_pressure;BME280_temperature;BME280_humidity;BME280_pressure;Samples;Min_cycle;Max_cycle;Signal;HPM_P1;HPM_P2
2023/05/01 00:01:12;;;;;;;4.47;3.50;;;14.60;72.40;;;;;;5054487;28;20449;-57
2023/05/01 00:03:40;;;;;;;3.80;3.50;;;14.60;72.80;;;;;;5054440;28;20480;-58
2023/05/01 00:06:06;;;;;;;6.07;4.23;;;14.60;73.10;;;;;;5054296;28;20825;-58
2023/05/01 00:08:33;;;;;;;5.67;3.70;;;14.50;73.10;;;;;;5053996;28;20536;-58
2023/05/01 00:11:03;;;;;;;4.27;3.70;;;14.50;73.50;;;;;;5053987;28;20943;-58
2023/05/01 00:13:30;;;;;;;4.60;4.20;;;14.50;74.10;;;;;;5054294;28;20504;-57
2023/05/01 00:15:57;;;;;;;5.70;3.90;;;14.50;74.70;;;;;;5054195;28;20548;-58
2023/05/01 00:18:23;;;;;;;4.00;3.27;;;14.50;75.30;;;;;;5054104;28;20491;-58
2023/05/01 00:20:51;;;;;;;6.63;4.27;;;14.50;76.10;;;;;;5054124;28;20454;-57
2023/05/01 00:23:18;;;;;;;4.13;3.80;;;14.50;76.70;;;;;;5053991;28;20507;-57
2023/05/01 00:25:45;;;;;;;3.47;3.17;;;14.50;77.30;;;;;;5053471;28;20453;-58
2023/05/01 00:28:11;;;;;;;4.30;3.37;;;14.50;77.70;;;;;;5053634;28;20456;-58
2023/05/01 00:30:39;;;;;;;6.07;3.03;;;14.60;78.00;;;;;;5053556;28;20456;-58
2023/05/01 00:33:06;;;;;;;4.90;3.53;;;14.60;78.10;;;;;;5053796;28;20469;-57
2023/05/01 00:35:34;;;;;;;3.47;3.17;;;14.60;78.20;;;;;;5053823;28;20449;-58
2023/05/01 00:38:02;;;;;;;6.53;3.60;;;14.50;77.90;;;;;;5053699;28;20473;-58
2023/05/01 00:40:29;;;;;;;3.53;3.13;;;14.40;77.80;;;;;;5053698;28;20450;-57
2023/05/01 00:42:56;;;;;;;5.40;3.07;;;14.30;77.90;;;;;;5053406;28;20943;-58
2023/05/01 00:45:23;;;;;;;3.60;3.30;;;14.30;78.20;;;;;;5053566;28;20465;-58
2023/05/01 00:47:50;;;;;;;6.80;3.90;;;14.20;78.50;;;;;;5053622;28;20491;-58
2023/05/01 00:50:17;;;;;;;5.00;3.50;;;14.20;78.60;;;;;;5053554;28;20536;-58
2023/05/01 00:52:44;;;;;;;4.20;3.43;;;14.20;79.10;;;;;;5053524;28;20507;-58
2023/05/01 00:55:12;;;;;;;6.00;3.83;;;14.20;79.60;;;;;;5053466;28;20473;-58
2023/05/01 00:57:38;;;;;;;4.77;3.90;;;14.20;79.80;;;;;;5053352;28;20480;-57
2023/05/01 01:00:07;;;;;;;3.70;3.33;;;14.20;79.90;;;;;;5053172;28;20454;-58
2023/05/01 01:02:34;;;;;;;4.07;3.67;;;14.20;80.00;;;;;;5053137;28;20955;-58
2023/05/01 01:05:01;;;;;;;4.00;3.23;;;14.20;80.40;;;;;;5053248;28;20473;-58
2023/05/01 01:07:37;;;;;;;5.00;4.03;;;14.20;80.50;;;;;;5052935;28;20830;-58
2023/05/01 01:10:17;;;;;;;5.07;2.90;;;14.30;80.70;;;;;;5053836;28;20528;-58
2023/05/01 01:12:53;;;;;;;3.47;3.17;;;14.30;80.80;;;;;;5053394;28;20437;-58
2023/05/01 01:15:28;;;;;;;3.70;3.40;;;14.30;80.90;;;;;;5053270;28;20469;-58
2023/05/01 01:18:04;;;;;;;4.20;3.80;;;14.40;80.90;;;;;;5053270;28;20470;-58
2023/05/01 01:20:36;;;;;;;4.60;3.40;;;14.40;80.60;;;;;;5053212;28;20845;-58
2023/05/01 01:23:33;;;;;;;4.90;3.60;;;14.50;80.80;;;;;;5053246;28;20800;-57
2023/05/01 01:26:18;;;;;;;6.10;3.90;;;14.50;80.60;;;;;;5053237;28;20456;-58
2023/05/01 01:29:17;;;;;;;6.20;4.30;;;14.50;80.20;;;;;;5053164;28;20422;-58
2023/05/01 01:31:55;;;;;;;7.40;3.17;;;14.60;79.70;;;;;;5053152;28;20820;-58
2023/05/01 01:34:26;;;;;;;4.47;3.13;;;14.60;78.90;;;;;;5052984;28;20465;-57
2023/05/01 01:37:02;;;;;;;3.33;2.60;;;14.70;78.30;;;;;;5054236;28;20425;-58
2023/05/01 01:39:37;;;;;;;4.33;3.03;;;14.70;77.60;;;;;;5057076;28;20501;-58
2023/05/01 01:42:09;;;;;;;4.60;3.30;;;14.70;76.10;;;;;;5057130;28;20429;-58
2023/05/01 01:44:42;;;;;;;3.70;2.87;;;14.70;76.00;;;;;;5057006;28;20466;-58
2023/05/01 01:47:14;;;;;;;5.27;3.83;;;14.70;76.40;;;;;;5057039;28;20445;-58
2023/05/01 01:49:45;;;;;;;3.73;3.30;;;14.80;76.80;;;;;;5057497;28;20446;-58
2023/05/01 01:52:14;;;;;;;5.37;3.13;;;14.80;77.10;;;;;;5056980;28;20457;-58
2023/05/01 01:54:47;;;;;;;4.20;2.97;;;14.80;77.60;;;;;;5056484;28;20552;-58
2023/05/01 01:57:16;;;;;;;4.47;3.53;;;14.80;77.80;;;;;;5056798;28;20429;-58
2023/05/01 01:59:46;;;;;;;3.40;3.07;;;14.80;77.80;;;;;;5056691;28;20481;-58
2023/05/01 02:02:15;;;;;;;4.70;3.20;;;14.80;77.60;;;;;;5056650;28;20453;-58
2023/05/01 02:04:45;;;;;;;6.13;3.20;;;14.80;77.60;;;;;;5056309;28;20975;-58
2023/05/01 02:07:14;;;;;;;6.77;3.87;;;14.80;77.70;;;;;;5056614;28;20457;-58
2023/05/01 02:09:41;;;;;;;3.53;3.23;;;14.80;77.80;;;;;;5056208;28;21042;-58
2023/05/01 02:12:09;;;;;;;4.40;2.93;;;14.70;77.60;;;;;;5056537;28;20481;-58
2023/05/01 02:14:37;;;;;;;3.30;3.00;;;14.70;77.20;;;;;;5056451;28;20470;-58
2023/05/01 02:17:05;;;;;;;3.43;2.97;;;14.70;77.20;;;;;;5056499;28;20939;-58
2023/05/01 02:19:33;;;;;;;4.27;2.50;;;14.70;77.10;;;;;;5056420;28;20481;-57
2023/05/01 02:22:02;;;;;;;3.93;3.53;;;14.70;76.90;;;;;;5056139;28;20445;-58
2023/05/01 02:24:33;;;;;;;3.07;2.87;;;14.70;76.70;;;;;;5056262;28;20472;-58
2023/05/01 02:27:05;;;;;;;5.47;3.13;;;14.70;76.50;;;;;;5057713;28;20977;-58
2023/05/01 02:29:32;;;;;;;4.47;2.90;;;14.70;76.50;;;;;;5058208;28;20469;-58
2023/05/01 02:31:59;;;;;;;4.50;2.63;;;14.70;76.70;;;;;;5057608;28;20552;-58
2023/05/01 02:34:26;;;;;;;3.90;3.30;;;14.70;77.30;;;;;;5056869;28;20474;-57
2023/05/01 02:36:53;;;;;;;5.93;3.60;;;14.60;77.10;;;;;;5056411;28;20449;-58
2023/05/01 02:39:21;;;;;;;4.20;3.43;;;14.60;77.10;;;;;;5055972;28;20484;-57
2023/05/01 02:41:49;;;;;;;5.80;3.67;;;14.60;77.00;;;;;;5056192;28;20453;-58
2023/05/01 02:44:17;;;;;;;3.20;2.90;;;14.60;77.20;;;;;;5055656;28;20480;-58
2023/05/01 02:46:47;;;;;;;4.43;3.40;;;14.60;77.80;;;;;;5056068;28;20449;-58
2023/05/01 02:49:17;;;;;;;5.93;3.47;;;14.60;78.00;;;;;;5055207;28;20446;-58
2023/05/01 02:51:45;;;;;;;4.17;3.60;;;14.50;78.20;;;;;;5055892;28;20852;-58
2023/05/01 02:54:12;;;;;;;4.70;3.43;;;14.60;78.50;;;;;;5055700;28;20472;-58
2023/05/01 02:56:41;;;;;;;5.23;3.93;;;14.60;78.70;;;;;;5055791;28;20450;-58
2023/05/01 02:59:07;;;;;;;6.33;3.80;;;14.50;78.70;;;;;;5055512;28;20558;-58
2023/05/01 03:01:34;;;;;;;6.80;4.13;;;14.50;78.30;;;;;;5055655;28;20450;-58
2023/05/01 03:04:01;;;;;;;5.50;3.60;;;14.50;78.20;;;;;;5055574;28;20473;-58
2023/05/01 03:06:29;;;;;;;4.70;3.50;;;14.50;78.80;;;;;;5055637;28;20449;-58
2023/05/01 03:08:56;;;;;;;3.30;2.70;;;14.40;79.00;;;;;;5054884;28;21007;-58
2023/05/01 03:11:23;;;;;;;4.83;3.13;;;14.50;79.60;;;;;;5055557;28;20452;-58
2023/05/01 03:13:51;;;;;;;4.23;3.30;;;14.40;79.40;;;;;;5055901;28;20465;-58
2023/05/01 03:16:17;;;;;;;3.57;3.27;;;14.40;79.10;;;;;;5055105;28;20943;-58
2023/05/01 03:18:44;;;;;;;3.43;3.10;;;14.40;78.90;;;;;;5055194;28;20899;-58
2023/05/01 03:21:12;;;;;;;3.93;3.10;;;14.40;79.20;;;;;;5055287;28;20485;-58
2023/05/01 03:23:39;;;;;;;4.97;3.60;;;14.40;79.00;;;;;;5055044;28;20470;-57
2023/05/01 03:26:06;;;;;;;5.27;3.20;;;14.40;79.10;;;;;;5054773;28;20948;-58
2023/05/01 03:28:33;;;;;;;3.57;3.27;;;14.40;78.90;;;;;;5055093;28;20537;-58
2023/05/01 03:31:01;;;;;;;4.40;3.63;;;14.40;78.90;;;;;;5055073;28;20498;-58
2023/05/01 03:33:27;;;;;;;3.80;2.70;;;14.40;78.60;;;;;;5054879;28;20470;-58
2023/05/01 03:36:02;;;;;;;3.60;2.93;;;14.40;78.40;;;;;;5055011;28;20452;-58
2023/05/01 03:38:29;;;;;;;4.80;3.80;;;14.40;78.70;;;;;;5054792;28;20564;-58
2023/05/01 03:40:56;;;;;;;5.17;3.13;;;14.40;78.60;;;;;;5054914;28;20445;-58
2023/05/01 03:43:23;;;;;;;3.57;3.23;;;14.40;78.40;;;;;;5054779;28;20457;-58
2023/05/01 03:45:50;;;;;;;4.70;4.27;;;14.40;78.80;;;;;;5054720;28;20802;-58
2023/05/01 03:48:18;;;;;;;4.23;3.80;;;14.40;78.40;;;;;;5054754;28;20488;-58
2023/05/01 03:50:45;;;;;;;5.13;3.70;;;14.40;78.40;;;;;;5054348;28;20963;-57
2023/05/01 03:53:12;;;;;;;3.87;3.57;;;14.40;78.50;;;;;;5054446;28;20445;-57
2023/05/01 03:55:39;;;;;;;4.97;3.90;;;14.40;78.30;;;;;;5054219;28;21009;-57
2023/05/01 03:58:06;;;;;;;4.60;3.83;;;14.40;78.10;;;;;;5054289;28;20846;-58
2023/05/01 04:00:33;;;;;;;4.63;4.20;;;14.40;78.20;;;;;;5053414;28;20450;-57
2023/05/01 04:03:00;;;;;;;5.70;4.40;;;14.40;78.20;;;;;;5054466;28;20445;-58
2023/05/01 04:05:28;;;;;;;5.63;4.57;;;14.40;78.40;;;;;;5054877;28;21006;-58
2023/05/01 04:07:55;;;;;;;7.80;4.63;;;14.40;78.20;;;;;;5053795;28;20946;-57
2023/05/01 04:10:22;;;;;;;7.17;4.57;;;14.40;78.50;;;;;;5054439;28;20422;-58
2023/05/01 04:12:48;;;;;;;6.20;4.87;;;14.40;78.40;;;;;;5054484;28;20445;-58
2023/05/01 04:15:15;;;;;;;5.73;4.77;;;14.40;78.80;;;;;;5054184;28;20465;-57
2023/05/01 04:17:43;;;;;;;5.07;4.57;;;14.40;79.00;;;;;;5054280;28;20446;-58
2023/05/01 04:20:11;;;;;;;5.87;4.20;;;14.40;79.00;;;;;;5054052;28;20565;-58
2023/05/01 04:22:39;;;;;;;8.17;4.30;;;14.40;78.80;;;;;;5054028;28;20449;-58
2023/05/01 04:25:07;;;;;;;4.57;4.00;;;14.40;79.10;;;;;;5054044;28;20469;-57
2023/05/01 04:27:34;;;;;;;5.57;4.33;;;14.50;79.00;;;;;;5053963;28;20457;-58
2023/05/01 04:30:01;;;;;;;6.10;4.47;;;14.50;78.90;;;;;;5053971;28;20445;-58
2023/05/01 04:32:27;;;;;;;5.17;4.43;;;14.50;79.10;;;;;;5053924;28;20446;-58
2023/05/01 04:34:54;;;;;;;4.90;4.40;;;14.50;79.20;;;;;;5053760;28;20473;-58
2023/05/01 04:37:21;;;;;;;5.30;4.13;;;14.50;79.20;;;;;;5053815;28;20461;-58
2023/05/01 04:39:49;;;;;;;4.60;3.93;;;14.50;79.40;;;;;;5054234;28;20473;-58
2023/05/01 04:42:16;;;;;;;6.57;3.70;;;14.50;79.50;;;;;;5053730;28;20449;-58
2023/05/01 04:44:43;;;;;;;5.60;4.30;;;14.60;79.70;;;;;;5053706;28;20514;-57
2023/05/01 04:47:09;;;;;;;9.63;4.17;;;14.60;79.70;;;;;;5053712;28;20438;-58
2023/05/01 04:49:36;;;;;;;6.47;4.10;;;14.60;79.30;;;;;;5053645;28;20457;-58
2023/05/01 04:52:03;;;;;;;5.40;4.33;;;14.60;79.40;;;;;;5053641;28;20481;-58
2023/05/01 04:54:30;;;;;;;6.47;4.23;;;14.70;79.70;;;;;;5053401;28;20469;-58
2023/05/01 04:56:58;;;;;;;4.83;3.50;;;14.70;79.50;;;;;;5053527;28;20457;-58
2023/05/01 04:59:24;;;;;;;4.00;3.60;;;14.70;79.40;;;;;;5053123;28;20480;-58
2023/05/01 05:01:51;;;;;;;8.27;3.70;;;14.70;79.20;;;;;;5053087;28;20958;-58
2023/05/01 05:04:18;;;;;;;4.40;4.00;;;14.80;78.90;;;;;;5053003;28;21002;-58
2023/05/01 05:06:44;;;;;;;6.53;4.00;;;14.80;79.20;;;;;;5053388;28;20912;-58
2023/05/01 05:09:11;;;;;;;4.43;4.03;;;14.90;79.20;;;;;;5052873;28;20840;-58
2023/05/01 05:11:38;;;;;;;7.20;4.37;;;15.00;79.60;;;;;;5052972;28;20876;-58
2023/05/01 05:14:06;;;;;;;6.63;3.73;;;15.00;78.60;;;;;;5053189;28;20516;-58
2023/05/01 05:16:33;;;;;;;4.70;4.20;;;15.10;78.40;;;;;;5053229;28;20457;-58
2023/05/01 05:19:00;;;;;;;5.03;3.90;;;15.20;78.40;;;;;;5053200;28;20481;-58
2023/05/01 05:21:26;;;;;;;4.93;3.47;;;15.20;78.40;;;;;;5053256;28;20465;-58
2023/05/01 05:23:53;;;;;;;4.23;3.83;;;15.30;78.80;;;;;;5053247;28;20807;-58
2023/05/01 05:26:20;;;;;;;4.90;3.90;;;15.40;78.70;;;;;;5055058;28;20472;-58
2023/05/01 05:28:47;;;;;;;4.10;3.50;;;15.40;78.40;;;;;;5054565;28;20449;-57
2023/05/01 05:31:15;;;;;;;5.20;3.83;;;15.40;78.10;;;;;;5053648;28;21001;-58
2023/05/01 05:33:43;;;;;;;4.50;3.70;;;15.50;78.10;;;;;;5053436;28;20863;-58
2023/05/01 05:36:10;;;;;;;6.90;3.80;;;15.50;78.00;;;;;;5053386;28;20526;-58
2023/05/01 05:38:37;;;;;;;4.43;3.93;;;15.60;78.10;;;;;;5053268;28;20453;-58
2023/05/01 05:41:04;;;;;;;4.40;3.87;;;15.60;77.60;;;;;;5053279;28;20473;-58
2023/05/01 05:43:31;;;;;;;4.77;4.37;;;15.70;77.50;;;;;;5053193;28;20527;-58
2023/05/01 05:45:58;;;;;;;4.03;3.63;;;15.70;77.70;;;;;;5053089;28;20541;-58
2023/05/01 05:48:26;;;;;;;4.30;3.90;;;15.80;78.10;;;;;;5053006;28;20445;-58
2023/05/01 05:50:53;;;;;;;4.33;3.90;;;15.80;78.40;;;;;;5053387;28;20481;-58
2023/05/01 05:53:20;;;;;;;3.83;3.43;;;15.90;78.50;;;;;;5052593;28;20449;-58
2023/05/01 05:55:47;;;;;;;5.03;3.47;;;15.90;78.10;;;;;;5053022;28;20456;-58
2023/05/01 05:58:18;;;;;;;4.67;4.27;;;15.90;78.10;;;;;;5053077;28;20519;-58
2023/05/01 06:00:46;;;;;;;3.50;3.20;;;16.00;78.40;;;;;;5052982;28;20472;-58
2023/05/01 06:03:13;;;;;;;5.90;3.60;;;16.00;78.20;;;;;;5052957;28;20453;-58
2023/05/01 06:05:41;;;;;;;4.70;3.40;;;16.00;78.20;;;;;;5052904;28;20449;-58
2023/05/01 06:08:09;;;;;;;5.10;3.50;;;16.00;78.60;;;;;;5052655;28;20468;-58
2023/05/01 06:10:35;;;;;;;3.70;3.50;;;16.10;78.50;;;;;;5052569;28;20481;-58
2023/05/01 06:13:02;;;;;;;3.63;3.33;;;16.00;78.20;;;;;;5052654;28;20445;-58
2023/05/01 06:15:29;;;;;;;4.40;3.30;;;16.10;77.70;;;;;;5052728;28;20469;-58
2023/05/01 06:17:56;;;;;;;3.83;3.53;;;16.20;77.30;;;;;;5052901;28;20446;-58
2023/05/01 06:20:23;;;;;;;4.30;3.90;;;16.20;77.20;;;;;;5052669;28;20489;-58
2023/05/01 06:22:51;;;;;;;3.30;3.10;;;16.20;76.90;;;;;;5052730;28;20457;-58
2023/05/01 06:25:18;;;;;;;4.40;4.00;;;16.30;76.50;;;;;;5055814;28;20491;-58
2023/05/01 06:27:44;;;;;;;5.27;3.60;;;16.30;76.10;;;;;;5055864;28;20958;-57
2023/05/01 06:30:12;;;;;;;3.60;3.30;;;16.30;75.90;;;;;;5056267;28;20446;-58
2023/05/01 06:32:40;;;;;;;4.03;3.67;;;16.30;75.60;;;;;;5056268;28;20469;-58
2023/05/01 06:35:08;;;;;;;4.70;3.67;;;16.40;75.40;;;;;;5056168;28;20527;-58
2023/05/01 06:37:35;;;;;;;4.40;4.00;;;16.40;75.00;;;;;;5056172;28;20815;-58
2023/05/01 06:40:03;;;;;;;3.63;3.33;;;16.50;74.90;;;;;;5055765;28;21108;-58
2023/05/01 06:42:30;;;;;;;4.10;3.73;;;16.60;75.00;;;;;;5056109;28;20828;-58
2023/05/01 06:44:57;;;;;;;3.77;3.47;;;16.70;75.00;;;;;;5055971;28;20466;-58
2023/05/01 06:47:24;;;;;;;3.67;3.37;;;16.70;73.80;;;;;;5055997;28;20446;-58
2023/05/01 06:49:50;;;;;;;4.60;4.20;;;16.80;73.00;;;;;;5055905;28;20453;-58
2023/05/01 06:52:17;;;;;;;4.23;3.90;;;16.80;73.30;;;;;;5055833;28;20499;-58
2023/05/01 06:54:44;;;;;;;3.87;3.50;;;16.90;73.30;;;;;;5055790;28;20462;-58
2023/05/01 06:57:12;;;;;;;4.77;3.57;;;17.00;72.50;;;;;;5055697;28;20551;-58
2023/05/01 06:59:39;;;;;;;4.20;3.90;;;17.00;71.70;;;;;;5055645;28;20481;-58
2023/05/01 07:02:05;;;;;;;4.13;3.73;;;17.10;71.30;;;;;;5055576;28;20450;-58
2023/05/01 07:04:32;;;;;;;6.00;3.77;;;17.10;70.70;;;;;;5055618;28;20823;-58
2023/05/01 07:06:59;;;;;;;3.90;3.60;;;17.20;70.60;;;;;;5055522;28;20441;-58
2023/05/01 07:09:26;;;;;;;3.60;3.30;;;17.40;70.40;;;;;;5055207;28;21009;-57
2023/05/01 07:11:55;;;;;;;4.80;3.53;;;17.50;69.40;;;;;;5055092;28;20454;-57
2023/05/01 07:14:23;;;;;;;4.03;3.27;;;17.60;68.90;;;;;;5055328;28;20469;-58
2023/05/01 07:16:50;;;;;;;6.60;3.50;;;17.70;68.60;;;;;;5055423;28;20442;-58
2023/05/01 07:19:17;;;;;;;4.50;3.73;;;17.80;68.10;;;;;;5055242;28;20456;-58
2023/05/01 07:21:44;;;;;;;5.73;4.03;;;17.90;67.40;;;;;;5055270;28;20867;-58
2023/05/01 07:24:11;;;;;;;5.00;3.70;;;18.00;66.20;;;;;;5055213;28;20488;-58
2023/05/01 07:26:38;;;;;;;6.60;4.27;;;18.20;66.00;;;;;;5055144;28;20570;-58
2023/05/01 07:29:05;;;;;;;5.50;3.67;;;18.40;64.50;;;;;;5055078;28;20474;-57
2023/05/01 07:31:33;;;;;;;5.33;3.70;;;18.50;62.40;;;;;;5055169;28;20442;-58
2023/05/01 07:33:59;;;;;;;3.70;3.40;;;18.70;61.70;;;;;;5054990;28;20461;-58
2023/05/01 07:36:27;;;;;;;5.33;3.60;;;18.90;61.80;;;;;;5054775;28;20485;-58
2023/05/01 07:38:54;;;;;;;3.33;3.00;;;19.10;61.40;;;;;;5054958;28;20804;-58
2023/05/01 07:41:21;;;;;;;4.10;3.40;;;19.30;60.40;;;;;;5054512;28;21010;-58
2023/05/01 07:43:48;;;;;;;4.20;3.80;;;19.50;59.80;;;;;;5054523;28;20839;-58
2023/05/01 07:46:14;;;;;;;4.37;3.63;;;19.60;59.30;;;;;;5054875;28;20446;-58
2023/05/01 07:48:43;;;;;;;4.30;3.40;;;19.80;58.20;;;;;;5055256;28;20449;-58
2023/05/01 07:51:09;;;;;;;5.50;3.60;;;19.90;57.60;;;;;;5054701;28;20451;-58
2023/05/01 07:53:37;;;;;;;3.20;2.93;;;20.10;57.10;;;;;;5054690;28;20472;-58
2023/05/01 07:56:07;;;;;;;7.23;2.93;;;20.20;56.70;;;;;;5054591;28;20491;-58
2023/05/01 07:58:34;;;;;;;3.40;3.20;;;20.40;56.50;;;;;;5054622;28;20476;-58
2023/05/01 08:01:02;;;;;;;4.03;3.53;;;20.60;56.40;;;;;;5054455;28;20525;-58
2023/05/01 08:03:29;;;;;;;4.20;3.77;;;20.70;55.80;;;;;;5054304;28;20473;-57
2023/05/01 08:05:57;;;;;;;5.93;3.50;;;20.90;54.00;;;;;;5055072;28;20445;-58
2023/05/01 08:08:24;;;;;;;10.63;3.80;;;21.10;54.30;;;;;;5054171;28;20480;-58
2023/05/01 08:10:51;;;;;;;3.50;3.20;;;21.20;54.20;;;;;;5054266;28;20450;-58
2023/05/01 08:13:18;;;;;;;3.57;3.27;;;21.30;53.90;;;;;;5054221;28;20515;-58
2023/05/01 08:15:46;;;;;;;3.70;3.37;;;21.40;54.00;;;;;;5054353;28;20472;-58
2023/05/01 08:18:18;;;;;;;4.23;3.23;;;21.60;54.00;;;;;;5054363;28;20452;-58
2023/05/01 08:20:45;;;;;;;3.70;3.40;;;21.70;53.70;;;;;;5054255;28;20476;-58
2023/05/01 08:23:13;;;;;;;4.93;3.50;;;21.90;53.50;;;;;;5055276;28;20454;-59
2023/05/01 08:25:40;;;;;;;4.53;4.13;;;22.00;53.00;;;;;;5055044;28;20962;-58
2023/05/01 08:28:06;;;;;;;4.90;4.50;;;21.90;48.80;;;;;;5054203;28;21053;-57
2023/05/01 08:30:33;;;;;;;5.27;3.77;;;21.60;49.10;;;;;;5054547;28;20453;-58
2023/05/01 08:33:00;;;;;;;4.00;3.60;;;21.60;49.80;;;;;;5054245;28;20476;-58
2023/05/01 08:35:26;;;;;;;4.37;3.97;;;21.60;50.70;;;;;;5054290;28;20471;-58
2023/05/01 08:37:53;;;;;;;3.90;3.47;;;21.70;50.80;;;;;;5054304;28;20449;-58
2023/05/01 08:40:22;;;;;;;5.13;3.23;;;21.70;50.30;;;;;;5054252;28;20488;-58
2023/05/01 08:42:49;;;;;;;5.00;3.60;;;21.80;50.50;;;;;;5054270;28;20476;-58
2023/05/01 08:45:18;;;;;;;4.10;3.70;;;22.00;49.60;;;;;;5054133;28;20473;-58
2023/05/01 08:47:46;;;;;;;4.90;4.10;;;22.10;50.10;;;;;;5053444;28;20445;-58
2023/05/01 08:50:16;;;;;;;7.10;3.90;;;22.30;49.80;;;;;;5053920;28;20446;-58
2023/05/01 08:52:43;;;;;;;6.20;3.50;;;22.20;47.70;;;;;;5054408;28;20446;-58
2023/05/01 08:55:12;;;;;;;5.20;3.57;;;22.20;49.00;;;;;;5053603;28;20474;-58
2023/05/01 08:57:45;;;;;;;4.70;3.63;;;22.30;49.10;;;;;;5053755;28;20537;-58
2023/05/01 09:00:17;;;;;;;3.80;3.50;;;22.50;48.50;;;;;;5053584;28;20844;-58
2023/05/01 09:02:47;;;;;;;10.00;4.07;;;22.70;47.80;;;;;;5053843;28;20465;-58
2023/05/01 09:05:16;;;;;;;4.60;4.20;;;22.80;47.50;;;;;;5054726;28;20535;-58
2023/05/01 09:07:43;;;;;;;4.67;3.43;;;23.00;47.00;;;;;;5056465;28;20461;-58
2023/05/01 09:10:11;;;;;;;3.73;3.43;;;23.20;47.40;;;;;;5053663;28;20442;-58
2023/05/01 09:12:41;;;;;;;6.33;3.50;;;23.40;48.00;;;;;;5053534;28;20447;-58
2023/05/01 09:15:09;;;;;;;3.23;2.93;;;23.70;47.50;;;;;;5053568;28;20469;-59
2023/05/01 09:17:36;;;;;;;3.67;3.23;;;23.90;46.10;;;;;;5053548;28;20532;-59
2023/05/01 09:20:04;;;;;;;4.93;3.23;;;24.10;45.20;;;;;;5053014;28;20549;-59
2023/05/01 09:22:33;;;;;;;9.33;3.63;;;24.30;44.40;;;;;;5053366;28;21059;-57
2023/05/01 09:25:00;;;;;;;6.57;3.97;;;24.60;45.20;;;;;;5053145;28;20473;-56
2023/05/01 09:27:27;;;;;;;5.23;3.30;;;24.80;43.70;;;;;;5053219;28;20445;-57
2023/05/01 09:29:55;;;;;;;3.40;3.07;;;24.90;43.90;;;;;;5053097;28;20453;-58
2023/05/01 09:32:26;;;;;;;4.77;2.83;;;25.10;44.80;;;;;;5053134;28;20464;-59
2023/05/01 09:34:54;;;;;;;3.73;3.43;;;25.50;44.60;;;;;;5053117;28;20469;-59
2023/05/01 09:37:28;;;;;;;5.27;3.30;;;25.90;42.50;;;;;;5053166;28;20571;-59
2023/05/01 09:40:07;;;;;;;5.27;3.33;;;26.30;42.20;;;;;;5052945;28;20448;-58
2023/05/01 09:42:36;;;;;;;4.73;3.47;;;26.60;41.00;;;;;;5053142;28;20461;-57
2023/05/01 09:45:06;;;;;;;3.90;3.23;;;26.70;39.60;;;;;;5053520;28;20473;-57
2023/05/01 09:47:34;;;;;;;5.10;3.30;;;26.60;38.10;;;;;;5052702;28;20930;-56
2023/05/01 09:50:00;;;;;;;3.23;2.93;;;26.70;38.60;;;;;;5052992;28;20449;-56
2023/05/01 09:52:28;;;;;;;3.73;2.90;;;26.80;38.40;;;;;;5052961;28;20445;-56
2023/05/01 09:55:13;;;;;;;4.70;3.00;;;26.90;38.10;;;;;;5052945;28;20897;-57
2023/05/01 09:57:41;;;;;;;4.77;3.07;;;27.10;38.10;;;;;;5052996;28;20481;-58
2023/05/01 10:00:11;;;;;;;2.60;2.40;;;27.20;37.20;;;;;;5055959;28;20464;-58
2023/05/01 10:02:38;;;;;;;3.33;3.03;;;27.20;36.70;;;;;;5056814;28;20554;-57
2023/05/01 10:05:06;;;;;;;4.60;2.73;;;27.20;37.60;;;;;;5056691;28;20517;-59
2023/05/01 10:07:33;;;;;;;3.03;2.77;;;27.30;37.00;;;;;;5056671;28;20874;-58
2023/05/01 10:10:15;;;;;;;4.17;2.87;;;27.30;36.80;;;;;;5056655;28;20849;-57
2023/05/01 10:12:41;;;;;;;4.23;3.27;;;27.30;37.20;;;;;;5056702;28;20798;-57
2023/05/01 10:15:10;;;;;;;2.83;2.63;;;27.50;37.00;;;;;;5056185;28;21007;-56
2023/05/01 10:17:38;;;;;;;5.10;2.80;;;27.60;36.90;;;;;;5056454;28;20449;-57
2023/05/01 10:20:06;;;;;;;3.53;2.67;;;27.80;36.70;;;;;;5056460;28;20445;-57
2023/05/01 10:22:33;;;;;;;4.50;3.03;;;28.00;36.10;;;;;;5056466;28;20495;-57
2023/05/01 10:25:00;;;;;;;3.03;2.73;;;28.10;35.60;;;;;;5056348;28;20488;-56
2023/05/01 10:27:28;;;;;;;3.50;2.83;;;28.20;36.10;;;;;;5056391;28;20516;-57
2023/05/01 10:29:54;;;;;;;6.60;2.73;;;28.20;35.80;;;;;;5055981;28;20445;-56
2023/05/01 10:32:23;;;;;;;2.50;2.30;;;28.40;34.60;;;;;;5056082;28;20445;-56
2023/05/01 10:34:54;;;;;;;2.77;2.17;;;28.60;34.50;;;;;;5055869;28;21012;-57
2023/05/01 10:37:25;;;;;;;8.20;3.00;;;28.90;35.10;;;;;;5056670;28;20432;-57
2023/05/01 10:39:52;;;;;;;3.63;2.80;;;29.30;36.00;;;;;;5056091;28;20417;-57
2023/05/01 10:42:19;;;;;;;2.83;2.63;;;29.80;33.90;;;;;;5055954;28;20515;-57
2023/05/01 10:44:46;;;;;;;2.77;2.57;;;30.10;31.40;;;;;;5055950;28;20543;-57
2023/05/01 10:47:46;;;;;;;4.70;2.80;;;30.20;31.20;;;;;;5055910;28;20449;-57
2023/05/01 10:50:14;;;;;;;3.17;2.87;;;30.20;31.20;;;;;;5061891;28;20448;-56
2023/05/01 10:53:16;;;;;;;4.13;2.43;;;30.30;31.50;;;;;;5073705;28;20448;-56
2023/05/01 10:55:44;;;;;;;4.00;3.10;;;30.50;30.70;;;;;;5075516;28;20850;-56
2023/05/01 10:58:12;;;;;;;2.97;2.77;;;30.70;30.10;;;;;;5075767;28;20463;-57
2023/05/01 11:00:38;;;;;;;3.93;2.43;;;30.70;29.90;;;;;;5075733;28;20547;-57
2023/05/01 11:03:39;;;;;;;2.93;2.73;;;31.00;28.70;;;;;;5075732;28;20448;-57
2023/05/01 11:06:07;;;;;;;3.60;3.30;;;31.50;29.00;;;;;;5073814;28;20859;-56
2023/05/01 11:08:35;;;;;;;4.87;3.50;;;31.90;29.60;;;;;;5075321;28;20459;-56
2023/05/01 11:11:39;;;;;;;6.07;2.70;;;32.20;28.60;;;;;;5074688;28;20451;-57
2023/05/01 11:14:07;;;;;;;6.07;3.43;;;32.40;28.30;;;;;;5075433;28;20950;-57
2023/05/01 11:16:45;;;;;;;5.03;3.50;;;32.30;27.60;;;;;;5075650;28;20448;-57
2023/05/01 11:19:51;;;;;;;3.87;3.53;;;32.20;27.20;;;;;;5076295;28;20887;-56
2023/05/01 11:22:18;;;;;;;3.40;3.10;;;32.10;28.50;;;;;;5075938;28;20558;-56
2023/05/01 11:24:45;;;;;;;3.13;2.80;;;32.50;28.90;;;;;;5075885;28;20472;-57
2023/05/01 11:27:15;;;;;;;3.50;3.20;;;33.10;28.10;;;;;;5075664;28;20853;-57
2023/05/01 11:29:47;;;;;;;4.13;3.70;;;33.60;26.90;;;;;;5075318;28;20444;-57
2023/05/01 11:32:19;;;;;;;3.50;3.30;;;33.70;25.90;;;;;;5074874;28;20898;-57
2023/05/01 11:34:49;;;;;;;3.60;3.30;;;33.70;27.20;;;;;;5075165;28;20470;-56
2023/05/01 11:37:16;;;;;;;3.70;3.33;;;33.80;26.10;;;;;;5075188;28;20433;-57
2023/05/01 11:39:50;;;;;;;4.13;3.03;;;33.90;25.00;;;;;;5074794;28;20964;-57
2023/05/01 11:42:22;;;;;;;4.93;2.87;;;33.70;25.80;;;;;;5055291;28;20503;-56
2023/05/01 11:45:09;;;;;;;3.77;3.50;;;33.30;25.80;;;;;;5055016;28;20503;-57
2023/05/01 11:47:36;;;;;;;4.90;3.57;;;32.90;26.10;;;;;;5054883;28;20453;-57
2023/05/01 11:50:05;;;;;;;3.43;3.13;;;32.20;26.80;;;;;;5054801;28;20445;-56
2023/05/01 11:52:42;;;;;;;3.10;2.67;;;32.00;28.30;;;;;;5054915;28;20449;-57
2023/05/01 11:55:10;;;;;;;3.57;3.20;;;32.20;27.30;;;;;;5054705;28;20511;-57
2023/05/01 11:57:46;;;;;;;3.90;3.60;;;32.50;26.40;;;;;;5054391;28;20488;-57
2023/05/01 12:00:14;;;;;;;4.43;4.03;;;33.00;27.50;;;;;;5055355;28;20437;-56
2023/05/01 12:02:41;;;;;;;4.97;2.80;;;33.40;27.20;;;;;;5072989;28;20484;-55
2023/05/01 12:05:16;;;;;;;4.23;3.90;;;34.00;26.80;;;;;;5054060;28;20475;-56
2023/05/01 12:07:42;;;;;;;4.20;3.90;;;34.20;25.10;;;;;;5054235;28;20460;-56
2023/05/01 12:10:10;;;;;;;4.33;3.53;;;34.30;24.90;;;;;;5054379;28;20430;-56
2023/05/01 12:12:37;;;;;;;3.43;3.20;;;34.70;24.80;;;;;;5054381;28;20228;-57
2023/05/01 12:15:04;;;;;;;4.23;3.93;;;35.00;24.30;;;;;;5054214;28;20476;-57
2023/05/01 12:17:31;;;;;;;4.10;3.70;;;35.30;23.80;;;;;;5054224;28;20210;-57
2023/05/01 12:19:58;;;;;;;3.47;3.23;;;35.10;24.10;;;;;;5054168;28;20203;-57
2023/05/01 12:22:28;;;;;;;4.17;2.90;;;34.70;24.30;;;;;;5053098;28;20229;-57
2023/05/01 12:24:55;;;;;;;3.20;3.00;;;34.10;25.20;;;;;;5053719;28;20804;-56
2023/05/01 12:27:22;;;;;;;2.90;2.57;;;33.20;25.50;;;;;;5054114;28;20460;-56
2023/05/01 12:29:49;;;;;;;3.47;3.17;;;32.10;25.30;;;;;;5053982;28;20445;-57
2023/05/01 12:32:16;;;;;;;3.43;3.10;;;31.00;26.40;;;;;;5053931;28;20503;-56
2023/05/01 12:34:43;;;;;;;3.03;2.10;;;29.80;28.00;;;;;;5054137;28;20477;-57
2023/05/01 12:37:10;;;;;;;3.23;2.93;;;28.80;30.00;;;;;;5053895;28;20453;-57
2023/05/01 12:39:41;;;;;;;3.10;2.50;;;27.80;31.20;;;;;;5053809;28;20523;-57
2023/05/01 12:42:15;;;;;;;4.03;3.73;;;26.90;33.20;;;;;;5053662;28;20473;-57
2023/05/01 12:44:43;;;;;;;8.87;4.53;;;26.10;35.90;;;;;;5053334;28;20480;-56
2023/05/01 12:47:10;;;;;;;4.70;3.90;;;25.40;39.80;;;;;;5053749;28;20457;-56
2023/05/01 12:49:37;;;;;;;6.37;3.90;;;24.90;42.20;;;;;;5053663;28;20449;-56
2023/05/01 12:52:06;;;;;;;4.40;4.00;;;24.60;45.20;;;;;;5053266;28;20870;-56
2023/05/01 12:54:36;;;;;;;3.40;3.10;;;24.60;46.10;;;;;;5053555;28;20509;-56
2023/05/01 12:57:09;;;;;;;3.87;3.57;;;24.60;45.80;;;;;;5053301;28;20912;-56